Time;durP1;ratioP1;P1;durP2;ratioP2;P2;SDS_P1;SDS_P2;PMS_P1;PMS_P2;Temp;Humidity;BMP_temperature;BMP_pressure;BME280_temperature;BME280_humidity;BME280_pressure;Samples;Min_cycle;Max_cycle;Signal;HPM_P1;HPM_P2
2022/03/12 00:00:43;;;;;;;15.35;9.38;;;;;;;;;;5024458;28;20467;-78
2022/03/12 00:03:10;;;;;;;13.65;9.35;;;;;;;;;;5024092;28;20430;-80
2022/03/12 00:05:36;;;;;;;11.77;8.80;;;;;;;;;;5024350;28;20407;-80
2022/03/12 00:08:05;;;;;;;14.70;9.48;;;;;;;;;;5025576;28;20438;-79
2022/03/12 00:10:32;;;;;;;14.70;9.52;;;;;;;;;;5022751;28;20436;-80
2022/03/12 00:12:59;;;;;;;10.60;9.03;;;;;;;;;;5023625;28;20441;-79
2022/03/12 00:15:25;;;;;;;12.25;8.75;;;;;;;;;;5023950;28;20415;-80
2022/03/12 00:17:52;;;;;;;16.83;9.52;;;;;;;;;;5025369;28;20423;-79
2022/03/12 00:20:22;;;;;;;12.20;9.15;;;;;;;;;;5024083;28;20943;-79
2022/03/12 00:22:51;;;;;;;14.52;9.63;;;;;;;;;;5025759;28;20813;-79
2022/03/12 00:25:18;;;;;;;11.70;8.90;;;;;;;;;;5024543;28;20564;-80
2022/03/12 00:27:46;;;;;;;15.57;10.02;;;;;;;;;;5024707;28;20422;-79
2022/03/12 00:30:16;;;;;;;12.30;9.00;;;;;;;;;;5022083;28;20434;-79
2022/03/12 00:32:42;;;;;;;13.02;8.90;;;;;;;;;;5022704;28;20489;-78
2022/03/12 00:35:09;;;;;;;12.35;8.98;;;;;;;;;;5023401;28;20443;-79
2022/03/12 00:37:36;;;;;;;16.20;8.90;;;;;;;;;;5024143;28;20432;-79
2022/03/12 00:40:02;;;;;;;14.20;9.82;;;;;;;;;;5023020;28;20427;-79
2022/03/12 00:42:30;;;;;;;14.23;9.13;;;;;;;;;;5024473;28;20518;-80
2022/03/12 00:44:57;;;;;;;10.73;8.50;;;;;;;;;;5025721;28;20481;-80
2022/03/12 00:47:24;;;;;;;10.80;8.90;;;;;;;;;;5022811;28;20920;-79
2022/03/12 00:49:51;;;;;;;13.65;9.40;;;;;;;;;;5022866;28;20489;-79
2022/03/12 00:52:18;;;;;;;14.48;9.35;;;;;;;;;;5024363;28;20432;-79
2022/03/12 00:54:44;;;;;;;17.40;9.40;;;;;;;;;;5025194;28;20463;-80
2022/03/12 00:57:11;;;;;;;13.30;9.35;;;;;;;;;;5023623;28;20501;-79
2022/03/12 00:59:37;;;;;;;14.43;8.98;;;;;;;;;;5022551;28;20427;-77
2022/03/12 01:02:05;;;;;;;14.35;8.57;;;;;;;;;;5022975;28;20424;-79
2022/03/12 01:04:32;;;;;;;14.90;9.55;;;;;;;;;;5021296;28;20462;-79
2022/03/12 01:06:59;;;;;;;13.07;8.85;;;;;;;;;;5022675;28;20425;-79
2022/03/12 01:09:25;;;;;;;12.98;9.35;;;;;;;;;;5020861;28;20908;-80
2022/03/12 01:11:51;;;;;;;13.60;9.40;;;;;;;;;;5021779;28;20505;-80
2022/03/12 01:14:17;;;;;;;12.60;9.02;;;;;;;;;;5024675;28;20438;-81
2022/03/12 01:16:44;;;;;;;13.85;9.30;;;;;;;;;;5020493;28;20444;-80
2022/03/12 01:19:11;;;;;;;15.07;9.20;;;;;;;;;;5020860;28;20423;-79
2022/03/12 01:21:38;;;;;;;12.20;9.35;;;;;;;;;;5020742;28;20428;-81
2022/03/12 01:24:04;;;;;;;13.95;8.90;;;;;;;;;;5023173;28;20418;-80
2022/03/12 01:26:34;;;;;;;11.98;9.05;;;;;;;;;;5021801;28;20830;-80
2022/03/12 01:29:00;;;;;;;13.10;9.05;;;;;;;;;;5021308;28;20435;-79
2022/03/12 01:31:27;;;;;;;12.90;8.75;;;;;;;;;;5021849;28;20435;-79
2022/03/12 01:33:53;;;;;;;11.73;8.93;;;;;;;;;;5020210;28;20482;-78
2022/03/12 01:36:20;;;;;;;10.48;9.00;;;;;;;;;;5021418;28;20483;-79
2022/03/12 01:38:48;;;;;;;15.60;8.50;;;;;;;;;;5021016;28;20418;-80
2022/03/12 01:41:15;;;;;;;9.70;8.50;;;;;;;;;;5019519;28;20883;-78
2022/03/12 01:43:43;;;;;;;12.77;9.05;;;;;;;;;;5021327;28;20417;-80
2022/03/12 01:46:10;;;;;;;11.88;8.90;;;;;;;;;;5022328;28;20503;-79
2022/03/12 01:48:41;;;;;;;13.63;8.80;;;;;;;;;;5019115;28;20914;-80
2022/03/12 01:51:07;;;;;;;13.30;8.77;;;;;;;;;;5022100;28;20424;-79
2022/03/12 01:53:35;;;;;;;12.27;8.90;;;;;;;;;;5021253;28;20422;-76
2022/03/12 01:56:02;;;;;;;12.55;8.70;;;;;;;;;;5019021;28;20488;-81
2022/03/12 01:58:28;;;;;;;11.93;8.23;;;;;;;;;;5019700;28;20504;-80
2022/03/12 02:00:57;;;;;;;12.60;8.70;;;;;;;;;;5020292;28;20420;-79
2022/03/12 02:03:28;;;;;;;10.30;7.80;;;;;;;;;;5021456;28;20455;-80
2022/03/12 02:05:55;;;;;;;13.43;8.68;;;;;;;;;;5021392;28;20430;-79
2022/03/12 02:08:21;;;;;;;13.23;9.05;;;;;;;;;;5022398;28;20433;-79
2022/03/12 02:10:50;;;;;;;13.85;8.40;;;;;;;;;;5020573;28;20417;-79
2022/03/12 02:13:16;;;;;;;12.23;8.30;;;;;;;;;;5022292;28;20523;-81
2022/03/12 02:15:43;;;;;;;12.27;8.43;;;;;;;;;;5020247;28;20432;-79
2022/03/12 02:18:10;;;;;;;11.63;8.57;;;;;;;;;;5021392;28;20762;-78
2022/03/12 02:20:38;;;;;;;13.45;8.82;;;;;;;;;;5019931;28;20428;-79
2022/03/12 02:23:04;;;;;;;13.35;7.90;;;;;;;;;;5021731;28;20855;-79
2022/03/12 02:25:33;;;;;;;10.68;8.27;;;;;;;;;;5020496;28;20463;-79
2022/03/12 02:28:00;;;;;;;11.60;8.60;;;;;;;;;;5020245;28;20426;-77
2022/03/12 02:30:34;;;;;;;9.60;8.20;;;;;;;;;;5019192;28;20439;-79
2022/03/12 02:33:01;;;;;;;11.70;8.68;;;;;;;;;;5019582;28;20551;-80
2022/03/12 02:35:34;;;;;;;14.33;8.80;;;;;;;;;;5021216;28;20465;-79
2022/03/12 02:38:00;;;;;;;12.30;8.40;;;;;;;;;;5022586;28;20424;-79
2022/03/12 02:40:26;;;;;;;12.27;7.93;;;;;;;;;;5024331;28;20768;-80
2022/03/12 02:42:57;;;;;;;10.50;7.65;;;;;;;;;;5026002;28;20484;-80
2022/03/12 02:45:25;;;;;;;12.30;8.30;;;;;;;;;;5024931;28;20432;-79
2022/03/12 02:47:51;;;;;;;10.52;8.00;;;;;;;;;;5024053;28;20770;-80
2022/03/12 02:50:18;;;;;;;11.05;7.43;;;;;;;;;;5021737;28;20506;-79
2022/03/12 02:52:44;;;;;;;13.43;8.55;;;;;;;;;;5026059;28;20418;-81
2022/03/12 02:55:13;;;;;;;13.52;9.63;;;;;;;;;;5025132;28;20465;-79
2022/03/12 02:57:40;;;;;;;12.13;8.63;;;;;;;;;;5025153;28;20429;-79
2022/03/12 03:00:09;;;;;;;12.05;8.20;;;;;;;;;;5024139;28;20431;-78
2022/03/12 03:02:40;;;;;;;11.75;8.55;;;;;;;;;;5022846;28;20417;-80
2022/03/12 03:05:07;;;;;;;10.88;8.18;;;;;;;;;;5023536;28;20509;-79
2022/03/12 03:07:35;;;;;;;12.63;7.97;;;;;;;;;;5045576;28;20471;-81
2022/03/12 03:10:02;;;;;;;11.85;7.65;;;;;;;;;;5043621;28;20923;-80
2022/03/12 03:12:28;;;;;;;10.85;7.90;;;;;;;;;;5042811;28;20489;-80
2022/03/12 03:14:55;;;;;;;10.25;7.90;;;;;;;;;;5044636;28;20916;-80
2022/03/12 03:17:25;;;;;;;10.97;7.97;;;;;;;;;;5043350;28;20575;-79
2022/03/12 03:19:52;;;;;;;10.45;7.72;;;;;;;;;;5043782;28;20775;-79
2022/03/12 03:22:19;;;;;;;10.63;7.88;;;;;;;;;;5042258;28;20496;-81
2022/03/12 03:24:45;;;;;;;10.13;7.57;;;;;;;;;;5044965;28;20854;-79
2022/03/12 03:27:11;;;;;;;12.23;8.00;;;;;;;;;;5044112;28;20420;-80
2022/03/12 03:29:38;;;;;;;14.02;8.00;;;;;;;;;;5042720;28;20479;-77
2022/03/12 03:32:05;;;;;;;12.70;7.77;;;;;;;;;;5042472;28;20497;-79
2022/03/12 03:34:33;;;;;;;9.25;7.40;;;;;;;;;;5043060;28;20497;-79
2022/03/12 03:37:00;;;;;;;14.77;8.15;;;;;;;;;;5042210;28;20421;-80
2022/03/12 03:39:26;;;;;;;9.98;7.70;;;;;;;;;;5043493;28;20432;-80
2022/03/12 03:41:53;;;;;;;12.70;8.20;;;;;;;;;;5043111;28;20448;-80
2022/03/12 03:44:21;;;;;;;11.80;7.40;;;;;;;;;;5042255;28;20801;-80
2022/03/12 03:46:47;;;;;;;11.18;8.10;;;;;;;;;;5041683;28;20429;-79
2022/03/12 03:49:13;;;;;;;9.60;7.60;;;;;;;;;;5041293;28;20497;-80
2022/03/12 03:51:45;;;;;;;9.07;7.55;;;;;;;;;;5042448;28;20444;-79
2022/03/12 03:54:15;;;;;;;12.48;8.10;;;;;;;;;;5043087;28;20425;-81
2022/03/12 03:56:41;;;;;;;10.68;8.60;;;;;;;;;;5042383;28;20442;-81
2022/03/12 03:59:07;;;;;;;10.40;8.07;;;;;;;;;;5041618;28;20480;-80
2022/03/12 04:01:41;;;;;;;9.95;7.10;;;;;;;;;;5042288;28;20421;-79
2022/03/12 04:04:07;;;;;;;9.65;7.07;;;;;;;;;;5040787;28;20434;-80
2022/03/12 04:06:39;;;;;;;11.43;7.40;;;;;;;;;;5042666;28;20487;-79
2022/03/12 04:09:07;;;;;;;11.57;8.05;;;;;;;;;;5043752;28;20478;-79
2022/03/12 04:11:34;;;;;;;10.32;8.27;;;;;;;;;;5042526;28;20512;-80
2022/03/12 04:14:01;;;;;;;9.23;7.38;;;;;;;;;;5043473;28;20459;-80
2022/03/12 04:16:28;;;;;;;9.97;7.20;;;;;;;;;;5043737;28;20447;-80
2022/03/12 04:18:54;;;;;;;12.63;7.88;;;;;;;;;;5041305;28;20418;-80
2022/03/12 04:21:21;;;;;;;11.37;7.70;;;;;;;;;;5042957;28;20441;-80
2022/03/12 04:23:47;;;;;;;9.70;7.75;;;;;;;;;;5043380;28;20452;-80
2022/03/12 04:26:16;;;;;;;10.18;7.15;;;;;;;;;;5041432;28;20435;-80
2022/03/12 04:28:42;;;;;;;9.32;7.13;;;;;;;;;;5041244;28;20425;-79
2022/03/12 04:31:09;;;;;;;10.60;7.00;;;;;;;;;;5042047;28;20419;-80
2022/03/12 04:33:38;;;;;;;10.55;7.15;;;;;;;;;;5043489;28;20448;-80
2022/03/12 04:36:05;;;;;;;9.50;6.82;;;;;;;;;;5041414;28;20427;-80
2022/03/12 04:38:31;;;;;;;11.45;7.25;;;;;;;;;;5040529;28;20425;-80
2022/03/12 04:40:58;;;;;;;10.85;7.70;;;;;;;;;;5041838;28;20836;-79
2022/03/12 04:43:28;;;;;;;9.10;7.30;;;;;;;;;;5040375;28;20481;-80
2022/03/12 04:45:55;;;;;;;10.80;7.15;;;;;;;;;;5042741;28;20474;-81
2022/03/12 04:48:22;;;;;;;9.40;6.90;;;;;;;;;;5041386;28;20415;-80
2022/03/12 04:50:49;;;;;;;10.27;7.38;;;;;;;;;;5041831;28;20500;-79
2022/03/12 04:53:16;;;;;;;11.15;7.65;;;;;;;;;;5042241;28;20428;-79
2022/03/12 04:55:43;;;;;;;11.00;6.93;;;;;;;;;;5041275;28;20425;-78
2022/03/12 04:58:10;;;;;;;12.27;7.00;;;;;;;;;;5042321;28;20441;-80
2022/03/12 05:00:39;;;;;;;13.10;7.50;;;;;;;;;;5039695;28;20433;-79
2022/03/12 05:03:07;;;;;;;9.15;6.72;;;;;;;;;;5041149;28;20444;-79
2022/03/12 05:05:33;;;;;;;10.48;7.40;;;;;;;;;;5041118;28;20917;-81
2022/03/12 05:08:00;;;;;;;9.90;6.83;;;;;;;;;;5040729;28;20422;-79
2022/03/12 05:10:27;;;;;;;11.02;7.35;;;;;;;;;;5040404;28;20433;-79
2022/03/12 05:12:59;;;;;;;10.70;6.90;;;;;;;;;;5040962;28;20488;-80
2022/03/12 05:15:28;;;;;;;11.32;7.50;;;;;;;;;;5041016;28;20513;-79
2022/03/12 05:17:57;;;;;;;8.20;6.63;;;;;;;;;;5040057;28;20520;-81
2022/03/12 05:20:24;;;;;;;11.02;6.47;;;;;;;;;;5041487;28;20427;-79
2022/03/12 05:22:51;;;;;;;9.50;7.00;;;;;;;;;;5041279;28;20512;-79
2022/03/12 05:25:18;;;;;;;8.32;6.40;;;;;;;;;;5039934;28;20780;-80
2022/03/12 05:27:45;;;;;;;7.72;6.22;;;;;;;;;;5041717;28;20430;-81
2022/03/12 05:30:11;;;;;;;11.18;7.38;;;;;;;;;;5040556;28;20757;-80
2022/03/12 05:32:37;;;;;;;9.85;6.85;;;;;;;;;;5039986;28;20431;-80
2022/03/12 05:35:06;;;;;;;10.98;7.50;;;;;;;;;;5039938;28;20428;-80
2022/03/12 05:37:32;;;;;;;9.98;7.60;;;;;;;;;;5039610;28;20473;-79
2022/03/12 05:39:58;;;;;;;10.98;7.53;;;;;;;;;;5042837;28;20425;-79
2022/03/12 05:42:26;;;;;;;11.30;7.70;;;;;;;;;;5039478;28;20428;-79
2022/03/12 05:44:56;;;;;;;11.30;7.63;;;;;;;;;;5041188;28;20429;-80
2022/03/12 05:47:23;;;;;;;14.52;8.23;;;;;;;;;;5037968;28;20522;-80
2022/03/12 05:49:49;;;;;;;9.13;7.30;;;;;;;;;;5039088;28;20475;-80
2022/03/12 05:52:18;;;;;;;9.63;7.45;;;;;;;;;;5039580;28;20429;-80
2022/03/12 05:54:45;;;;;;;10.68;7.50;;;;;;;;;;5041016;28;20423;-79
2022/03/12 05:57:13;;;;;;;10.70;7.43;;;;;;;;;;5038620;28;20977;-79
2022/03/12 05:59:39;;;;;;;14.18;7.90;;;;;;;;;;5039641;28;20436;-77
2022/03/12 06:02:05;;;;;;;11.80;7.30;;;;;;;;;;5039320;28;20439;-80
2022/03/12 06:04:33;;;;;;;11.00;7.20;;;;;;;;;;5038502;28;20510;-79
2022/03/12 06:07:00;;;;;;;11.02;7.15;;;;;;;;;;5040395;28;20427;-80
2022/03/12 06:09:28;;;;;;;10.43;7.38;;;;;;;;;;5039309;28;20428;-79
2022/03/12 06:11:54;;;;;;;9.52;7.25;;;;;;;;;;5040927;28;20430;-81
2022/03/12 06:14:21;;;;;;;9.57;7.10;;;;;;;;;;5046185;28;20426;-79
2022/03/12 06:16:48;;;;;;;9.65;7.03;;;;;;;;;;5044362;28;20861;-80
2022/03/12 06:19:15;;;;;;;9.40;7.07;;;;;;;;;;5042048;28;20510;-80
2022/03/12 06:21:42;;;;;;;13.55;7.07;;;;;;;;;;5044332;28;20460;-79
2022/03/12 06:24:08;;;;;;;12.30;7.40;;;;;;;;;;5041849;28;20421;-80
2022/03/12 06:26:38;;;;;;;10.23;6.80;;;;;;;;;;5044163;28;20417;-80
2022/03/12 06:29:10;;;;;;;10.90;7.13;;;;;;;;;;5044483;28;20450;-80
2022/03/12 06:31:37;;;;;;;10.48;6.97;;;;;;;;;;5043565;28;20417;-80
2022/03/12 06:34:03;;;;;;;10.90;6.90;;;;;;;;;;5042833;28;20424;-79
2022/03/12 06:36:30;;;;;;;8.70;7.05;;;;;;;;;;5044272;28;20421;-79
2022/03/12 06:38:57;;;;;;;10.43;7.30;;;;;;;;;;5043467;28;20855;-79
2022/03/12 06:41:23;;;;;;;10.98;7.80;;;;;;;;;;5043121;28;20421;-80
2022/03/12 06:43:53;;;;;;;10.10;7.28;;;;;;;;;;5043929;28;20417;-79
2022/03/12 06:46:20;;;;;;;10.98;7.70;;;;;;;;;;5043058;28;20421;-79
2022/03/12 06:48:46;;;;;;;8.80;7.15;;;;;;;;;;5041465;28;21141;-79
2022/03/12 06:51:13;;;;;;;10.10;7.63;;;;;;;;;;5045098;28;20826;-79
2022/03/12 06:53:39;;;;;;;12.40;8.20;;;;;;;;;;5044475;28;20906;-80
2022/03/12 06:56:06;;;;;;;9.57;7.15;;;;;;;;;;5043267;28;20856;-80
2022/03/12 06:58:33;;;;;;;10.70;7.82;;;;;;;;;;5043547;28;20435;-79
2022/03/12 07:01:00;;;;;;;12.60;7.53;;;;;;;;;;5043932;28;20427;-80
2022/03/12 07:03:27;;;;;;;12.02;8.35;;;;;;;;;;5040779;28;20423;-80
2022/03/12 07:05:53;;;;;;;13.77;8.25;;;;;;;;;;5043871;28;20423;-79
2022/03/12 07:08:20;;;;;;;12.88;9.18;;;;;;;;;;5043219;28;20475;-80
2022/03/12 07:10:47;;;;;;;10.65;7.90;;;;;;;;;;5041267;28;20485;-80
2022/03/12 07:15:41;;;;;;;11.77;8.03;;;;;;;;;;4994377;28;20499;-79
2022/03/12 07:18:08;;;;;;;13.23;7.85;;;;;;;;;;4980324;28;20423;-80
2022/03/12 07:20:35;;;;;;;10.40;7.60;;;;;;;;;;4984579;28;20422;-79
2022/03/12 07:23:01;;;;;;;10.30;7.65;;;;;;;;;;5002163;28;20422;-81
2022/03/12 07:25:28;;;;;;;10.80;7.80;;;;;;;;;;4998484;28;20436;-79
2022/03/12 07:27:54;;;;;;;15.25;9.13;;;;;;;;;;4981920;28;20430;-80
2022/03/12 07:30:22;;;;;;;14.65;9.38;;;;;;;;;;4981129;28;20951;-79
2022/03/12 07:32:48;;;;;;;12.45;9.48;;;;;;;;;;4981375;28;20440;-80
2022/03/12 07:35:17;;;;;;;10.23;7.90;;;;;;;;;;4981331;28;20474;-79
2022/03/12 07:37:44;;;;;;;10.90;9.38;;;;;;;;;;4982533;28;20428;-79
2022/03/12 07:40:12;;;;;;;30.98;23.17;;;;;;;;;;4980586;28;20487;-79
2022/03/12 07:42:38;;;;;;;42.35;21.35;;;;;;;;;;4982581;28;20426;-79
2022/03/12 07:45:05;;;;;;;172.70;92.90;;;;;;;;;;4982224;28;20470;-81
2022/03/12 07:47:31;;;;;;;166.30;77.10;;;;;;;;;;4981998;28;20432;-80
2022/03/12 07:49:57;;;;;;;68.47;35.00;;;;;;;;;;4980822;28;20412;-79
2022/03/12 07:52:25;;;;;;;201.23;85.22;;;;;;;;;;4982663;28;20432;-80
2022/03/12 07:54:51;;;;;;;208.05;98.05;;;;;;;;;;4977925;28;20973;-79
2022/03/12 07:57:17;;;;;;;99.70;45.75;;;;;;;;;;4980204;28;20991;-80
2022/03/12 07:59:44;;;;;;;153.02;70.45;;;;;;;;;;4976675;28;20993;-78
2022/03/12 08:02:11;;;;;;;47.95;25.20;;;;;;;;;;4977784;28;20524;-80
2022/03/12 08:04:37;;;;;;;116.15;58.55;;;;;;;;;;4976436;28;20432;-79
2022/03/12 08:07:04;;;;;;;21.93;14.50;;;;;;;;;;4979054;28;20508;-79
2022/03/12 08:09:32;;;;;;;19.35;13.43;;;;;;;;;;4981213;28;20428;-78
2022/03/12 08:11:58;;;;;;;64.60;58.70;;;;;;;;;;4978172;28;20424;-78
2022/03/12 08:14:25;;;;;;;19.85;17.30;;;;;;;;;;4972840;28;20550;-78
2022/03/12 08:16:52;;;;;;;10.13;8.50;;;;;;;;;;4977391;28;20426;-78
2022/03/12 08:19:19;;;;;;;14.18;12.52;;;;;;;;;;4976360;28;20426;-78
2022/03/12 08:21:46;;;;;;;11.35;10.15;;;;;;;;;;4974177;28;20489;-78
2022/03/12 08:24:15;;;;;;;49.95;44.95;;;;;;;;;;4975783;28;20500;-78
2022/03/12 08:26:43;;;;;;;9.98;7.38;;;;;;;;;;4975403;28;20522;-75
2022/03/12 08:29:10;;;;;;;11.55;8.23;;;;;;;;;;4978239;28;21067;-78
2022/03/12 08:31:36;;;;;;;17.65;13.77;;;;;;;;;;4979505;28;20428;-77
2022/03/12 08:34:03;;;;;;;13.38;10.20;;;;;;;;;;4979161;28;20463;-78
2022/03/12 08:36:29;;;;;;;11.60;10.00;;;;;;;;;;4979737;28;20426;-79
2022/03/12 08:38:55;;;;;;;10.25;8.13;;;;;;;;;;4978732;28;20479;-79
2022/03/12 08:41:22;;;;;;;12.63;8.50;;;;;;;;;;4978040;28;20468;-78
2022/03/12 08:43:50;;;;;;;14.35;8.60;;;;;;;;;;4976552;28;20506;-78
2022/03/12 08:46:16;;;;;;;12.38;8.30;;;;;;;;;;4985502;28;20437;-77
2022/03/12 08:48:42;;;;;;;11.30;8.93;;;;;;;;;;4995055;28;20445;-77
2022/03/12 08:51:09;;;;;;;13.07;8.77;;;;;;;;;;4996130;28;20428;-78
2022/03/12 08:53:35;;;;;;;11.18;8.00;;;;;;;;;;4995946;28;20482;-78
2022/03/12 08:56:02;;;;;;;12.82;8.25;;;;;;;;;;4989917;28;20435;-78
2022/03/12 08:58:29;;;;;;;10.97;7.60;;;;;;;;;;4975619;28;21036;-77
2022/03/12 09:00:57;;;;;;;10.10;7.77;;;;;;;;;;4984146;28;20529;-77
2022/03/12 09:03:24;;;;;;;13.77;7.40;;;;;;;;;;4996712;28;20438;-77
2022/03/12 09:05:50;;;;;;;9.25;7.13;;;;;;;;;;4991582;28;20455;-78
2022/03/12 09:08:17;;;;;;;11.60;7.63;;;;;;;;;;4993968;28;20426;-79
2022/03/12 09:10:43;;;;;;;11.80;7.80;;;;;;;;;;4991182;28;21072;-79
2022/03/12 09:13:11;;;;;;;13.25;8.18;;;;;;;;;;4971475;28;20434;-78
2022/03/12 09:15:37;;;;;;;11.15;7.80;;;;;;;;;;4967316;28;20886;-79
2022/03/12 09:18:05;;;;;;;11.55;7.30;;;;;;;;;;4966579;28;20448;-76
2022/03/12 09:20:36;;;;;;;12.00;7.80;;;;;;;;;;4975225;28;20963;-79
2022/03/12 09:23:02;;;;;;;11.35;8.00;;;;;;;;;;4976131;28;20965;-78
2022/03/12 09:25:28;;;;;;;14.98;8.60;;;;;;;;;;4977203;28;20907;-78
2022/03/12 09:27:55;;;;;;;12.50;8.05;;;;;;;;;;4977847;28;21002;-79
2022/03/12 09:30:21;;;;;;;12.07;8.10;;;;;;;;;;4974703;28;20517;-79
2022/03/12 09:32:48;;;;;;;13.67;8.43;;;;;;;;;;4977048;28;20434;-79
2022/03/12 09:35:16;;;;;;;13.02;7.43;;;;;;;;;;4976146;28;20451;-79
2022/03/12 09:37:42;;;;;;;10.50;7.18;;;;;;;;;;4975722;28;20435;-77
2022/03/12 09:40:10;;;;;;;13.25;7.25;;;;;;;;;;4977536;28;20424;-79
2022/03/12 09:42:36;;;;;;;11.27;8.10;;;;;;;;;;4976814;28;20451;-78
2022/03/12 09:45:03;;;;;;;11.77;7.80;;;;;;;;;;4976294;28;20443;-78
2022/03/12 09:47:30;;;;;;;10.32;7.80;;;;;;;;;;4976283;28;20422;-79
2022/03/12 09:49:56;;;;;;;10.75;7.70;;;;;;;;;;4975648;28;20455;-79
2022/03/12 09:52:24;;;;;;;13.43;8.85;;;;;;;;;;4979148;28;20512;-80
2022/03/12 09:54:50;;;;;;;12.95;8.80;;;;;;;;;;4978660;28;20435;-79
2022/03/12 09:57:16;;;;;;;23.10;14.10;;;;;;;;;;4978307;28;20559;-79
2022/03/12 09:59:43;;;;;;;15.70;10.68;;;;;;;;;;4974600;28;20441;-77
2022/03/12 10:02:09;;;;;;;31.17;21.27;;;;;;;;;;4977918;28;20434;-79
2022/03/12 10:04:35;;;;;;;32.05;27.20;;;;;;;;;;4978721;28;20427;-79
2022/03/12 10:07:01;;;;;;;14.57;8.85;;;;;;;;;;4980373;28;21425;-79
2022/03/12 10:09:29;;;;;;;13.98;10.48;;;;;;;;;;4979661;28;20421;-79
2022/03/12 10:11:55;;;;;;;16.42;12.00;;;;;;;;;;4976363;28;20444;-78
2022/03/12 10:14:24;;;;;;;13.13;10.48;;;;;;;;;;4997191;28;20505;-79
2022/03/12 10:16:50;;;;;;;11.52;8.65;;;;;;;;;;4998741;28;20431;-79
2022/03/12 10:19:19;;;;;;;12.15;8.52;;;;;;;;;;4996223;28;20430;-79
2022/03/12 10:21:45;;;;;;;10.57;8.50;;;;;;;;;;4999082;28;20976;-76
2022/03/12 10:24:11;;;;;;;10.45;8.50;;;;;;;;;;4983058;28;20455;-80
2022/03/12 10:26:39;;;;;;;11.60;8.17;;;;;;;;;;4980389;28;20488;-79
2022/03/12 10:29:05;;;;;;;11.15;7.90;;;;;;;;;;4979529;28;20434;-78
2022/03/12 10:31:32;;;;;;;9.60;7.33;;;;;;;;;;4980348;28;20486;-79
2022/03/12 10:34:13;;;;;;;12.00;8.60;;;;;;;;;;4978552;28;20435;-79
2022/03/12 10:36:40;;;;;;;10.07;8.10;;;;;;;;;;4981584;28;20426;-79
2022/03/12 10:39:06;;;;;;;11.82;8.55;;;;;;;;;;4979705;28;20436;-79
2022/03/12 10:41:32;;;;;;;13.40;8.57;;;;;;;;;;4980677;28;20422;-79
2022/03/12 10:44:00;;;;;;;10.80;8.10;;;;;;;;;;4979420;28;20452;-80
2022/03/12 10:46:27;;;;;;;12.27;8.43;;;;;;;;;;4977028;28;20515;-79
2022/03/12 10:48:56;;;;;;;9.70;7.47;;;;;;;;;;4976108;28;20426;-77
2022/03/12 10:51:26;;;;;;;12.98;8.15;;;;;;;;;;4979719;28;20517;-80
2022/03/12 10:53:53;;;;;;;9.90;7.97;;;;;;;;;;4976964;28;20426;-80
2022/03/12 10:56:19;;;;;;;11.43;7.77;;;;;;;;;;4979199;28;20446;-79
2022/03/12 10:58:45;;;;;;;10.88;8.55;;;;;;;;;;4978462;28;20426;-79
2022/03/12 11:01:23;;;;;;;12.13;8.48;;;;;;;;;;4982790;28;20491;-79
2022/03/12 11:03:50;;;;;;;9.10;8.10;;;;;;;;;;4980076;28;20436;-79
2022/03/12 11:06:16;;;;;;;10.57;8.07;;;;;;;;;;4980053;28;20476;-79
2022/03/12 11:08:44;;;;;;;10.77;8.23;;;;;;;;;;4982604;28;21018;-77
2022/03/12 11:11:12;;;;;;;9.77;8.15;;;;;;;;;;4980315;28;20801;-79
2022/03/12 11:13:39;;;;;;;10.85;8.50;;;;;;;;;;4980214;28;20499;-79
2022/03/12 11:16:18;;;;;;;9.95;8.23;;;;;;;;;;4980437;28;20434;-79
2022/03/12 11:19:07;;;;;;;10.97;9.07;;;;;;;;;;4978934;28;20521;-80
2022/03/12 11:21:37;;;;;;;12.07;8.88;;;;;;;;;;4983330;28;20494;-78
2022/03/12 11:24:05;;;;;;;9.15;8.23;;;;;;;;;;4983694;28;20865;-79
2022/03/12 11:26:31;;;;;;;9.10;7.70;;;;;;;;;;4983413;28;20442;-79
2022/03/12 11:28:58;;;;;;;11.40;8.40;;;;;;;;;;4982491;28;20488;-78
2022/03/12 11:31:46;;;;;;;11.73;8.48;;;;;;;;;;4980536;28;20438;-79
2022/03/12 11:34:20;;;;;;;12.37;8.70;;;;;;;;;;4982615;28;20432;-79
2022/03/12 11:36:48;;;;;;;12.80;8.75;;;;;;;;;;4983456;28;20503;-79
2022/03/12 11:39:19;;;;;;;12.57;9.40;;;;;;;;;;4982480;28;20422;-79
2022/03/12 11:42:00;;;;;;;12.77;8.75;;;;;;;;;;4982739;28;20487;-79
2022/03/12 11:44:27;;;;;;;12.27;9.57;;;;;;;;;;5003787;28;20505;-79
2022/03/12 11:46:56;;;;;;;10.82;8.50;;;;;;;;;;4999505;28;20483;-79
2022/03/12 11:49:23;;;;;;;12.10;9.77;;;;;;;;;;5000088;28;20435;-79
2022/03/12 11:51:50;;;;;;;12.07;9.60;;;;;;;;;;5002276;28;20435;-78
2022/03/12 11:54:16;;;;;;;11.30;8.50;;;;;;;;;;4984079;28;20436;-78
2022/03/12 11:56:42;;;;;;;12.85;8.55;;;;;;;;;;4982695;28;20422;-77
2022/03/12 11:59:08;;;;;;;10.52;9.23;;;;;;;;;;4983088;28;20418;-80
2022/03/12 12:01:37;;;;;;;13.77;8.73;;;;;;;;;;4984829;28;20423;-80
2022/03/12 12:04:06;;;;;;;13.13;9.93;;;;;;;;;;4981965;28;20416;-80
2022/03/12 12:06:33;;;;;;;10.25;8.70;;;;;;;;;;4982202;28;20443;-80
2022/03/12 12:09:02;;;;;;;11.25;8.35;;;;;;;;;;4982081;28;20429;-79
2022/03/12 12:11:31;;;;;;;12.75;9.52;;;;;;;;;;4981171;28;20440;-80
2022/03/12 12:13:58;;;;;;;12.18;8.80;;;;;;;;;;4980860;28;20431;-80
2022/03/12 12:16:25;;;;;;;14.55;9.60;;;;;;;;;;4984193;28;20427;-79
2022/03/12 12:18:51;;;;;;;11.90;9.40;;;;;;;;;;4980488;28;20431;-80
2022/03/12 12:21:19;;;;;;;12.25;9.30;;;;;;;;;;4982996;28;20434;-79
2022/03/12 12:23:46;;;;;;;14.93;10.10;;;;;;;;;;4983381;28;20424;-80
2022/03/12 12:26:13;;;;;;;12.82;8.30;;;;;;;;;;4983335;28;20464;-79
2022/03/12 12:28:46;;;;;;;15.17;10.13;;;;;;;;;;4981167;28;20450;-78
2022/03/12 12:31:14;;;;;;;13.48;9.95;;;;;;;;;;4982148;28;20442;-79
2022/03/12 12:33:44;;;;;;;14.00;9.95;;;;;;;;;;4983164;28;20502;-79
2022/03/12 12:36:11;;;;;;;11.80;9.83;;;;;;;;;;4979004;28;20445;-79
2022/03/12 12:38:40;;;;;;;12.25;9.18;;;;;;;;;;4982499;28;20428;-80
2022/03/12 12:41:06;;;;;;;11.43;8.70;;;;;;;;;;4982602;28;20426;-80
2022/03/12 12:43:34;;;;;;;12.43;9.60;;;;;;;;;;4983155;28;20431;-80
2022/03/12 12:46:09;;;;;;;10.40;9.30;;;;;;;;;;4982155;28;20438;-80
2022/03/12 12:48:38;;;;;;;13.90;8.93;;;;;;;;;;4981721;28;20924;-80
2022/03/12 12:51:06;;;;;;;12.70;8.90;;;;;;;;;;4979239;28;20445;-80
2022/03/12 12:53:35;;;;;;;13.93;9.53;;;;;;;;;;4982715;28;20567;-80
2022/03/12 12:56:21;;;;;;;18.33;9.35;;;;;;;;;;4983015;28;20430;-80
2022/03/12 12:59:03;;;;;;;14.65;9.65;;;;;;;;;;4981130;28;20432;-79
2022/03/12 13:01:32;;;;;;;12.45;10.00;;;;;;;;;;4982095;28;20438;-79
2022/03/12 13:03:58;;;;;;;12.40;9.90;;;;;;;;;;4980048;28;20459;-80
2022/03/12 13:06:39;;;;;;;12.38;9.70;;;;;;;;;;4981779;28;20487;-79
2022/03/12 13:09:08;;;;;;;12.57;9.10;;;;;;;;;;4978785;28;20428;-79
2022/03/12 13:11:35;;;;;;;11.82;9.65;;;;;;;;;;4982480;28;20497;-78
2022/03/12 13:14:07;;;;;;;11.80;9.70;;;;;;;;;;4983459;28;20443;-79
2022/03/12 13:16:48;;;;;;;13.87;10.10;;;;;;;;;;4982096;28;20440;-79
2022/03/12 13:19:27;;;;;;;11.10;8.85;;;;;;;;;;4978389;28;20444;-78
2022/03/12 13:21:57;;;;;;;12.82;8.93;;;;;;;;;;4982645;28;20430;-80
2022/03/12 13:24:23;;;;;;;11.85;9.93;;;;;;;;;;4982112;28;20514;-79
2022/03/12 13:26:50;;;;;;;12.23;8.90;;;;;;;;;;4982607;28;20504;-80
2022/03/12 13:29:21;;;;;;;13.90;9.30;;;;;;;;;;4983690;28;20436;-80
2022/03/12 13:31:47;;;;;;;10.90;9.80;;;;;;;;;;4985194;28;20427;-78
2022/03/12 13:34:15;;;;;;;13.43;9.90;;;;;;;;;;4985536;28;20428;-80
2022/03/12 13:36:44;;;;;;;13.07;9.30;;;;;;;;;;4984406;28;20439;-81
2022/03/12 13:39:11;;;;;;;15.27;10.02;;;;;;;;;;4985057;28;20455;-80
2022/03/12 13:41:38;;;;;;;14.10;10.97;;;;;;;;;;4986323;28;20800;-80
2022/03/12 13:44:06;;;;;;;15.38;10.48;;;;;;;;;;4985844;28;21005;-81
2022/03/12 13:46:34;;;;;;;13.23;10.03;;;;;;;;;;4986638;28;20422;-80
2022/03/12 13:49:01;;;;;;;11.73;9.98;;;;;;;;;;4984783;28;20434;-82
2022/03/12 13:51:28;;;;;;;13.80;10.20;;;;;;;;;;4985018;28;20440;-81
2022/03/12 13:53:55;;;;;;;11.53;9.70;;;;;;;;;;4983704;28;21123;-80
2022/03/12 13:56:23;;;;;;;13.07;10.15;;;;;;;;;;4984706;28;20465;-80
2022/03/12 13:58:50;;;;;;;10.27;9.18;;;;;;;;;;4983634;28;20424;-80
2022/03/12 14:01:29;;;;;;;12.10;9.50;;;;;;;;;;4985901;28;20447;-80
2022/03/12 14:03:57;;;;;;;11.30;10.20;;;;;;;;;;4984727;28;20432;-81
2022/03/12 14:06:30;;;;;;;13.18;9.50;;;;;;;;;;4983481;28;20513;-80
2022/03/12 14:08:57;;;;;;;13.05;9.85;;;;;;;;;;4983883;28;20450;-80
2022/03/12 14:11:30;;;;;;;15.30;10.30;;;;;;;;;;4983877;28;20440;-80
2022/03/12 14:13:58;;;;;;;11.98;10.05;;;;;;;;;;4985282;28;20428;-79
2022/03/12 14:16:27;;;;;;;11.40;9.83;;;;;;;;;;4985586;28;20419;-80
2022/03/12 14:18:58;;;;;;;17.00;10.63;;;;;;;;;;4982055;28;20432;-80
2022/03/12 14:21:34;;;;;;;14.15;10.25;;;;;;;;;;4985929;28;20447;-80
2022/03/12 14:24:07;;;;;;;10.55;9.27;;;;;;;;;;4984854;28;20432;-80
2022/03/12 14:26:42;;;;;;;13.43;9.45;;;;;;;;;;4983233;28;20440;-80
2022/03/12 14:29:09;;;;;;;12.75;9.95;;;;;;;;;;4983392;28;20431;-80
2022/03/12 14:31:37;;;;;;;15.47;10.00;;;;;;;;;;4984085;28;20540;-81
2022/03/12 14:34:05;;;;;;;13.98;10.18;;;;;;;;;;4988507;28;20472;-80